createdAt,value
2023-08-01T00:00:21.480Z,23.02
2023-08-01T00:03:24.338Z,23.13
2023-08-01T00:06:27.417Z,23.13
2023-08-01T00:09:30.274Z,23.09
2023-08-01T00:12:34.970Z,23.04
2023-08-01T00:15:38.105Z,23.14
2023-08-01T00:18:40.891Z,23.09
2023-08-01T00:21:43.774Z,23.09
2023-08-01T00:24:48.643Z,22.98
2023-08-01T00:27:52.986Z,23.00
2023-08-01T00:31:03.468Z,22.83
2023-08-01T00:34:06.285Z,22.86
2023-08-01T00:37:09.056Z,22.86
2023-08-01T00:40:12.300Z,22.84
2023-08-01T00:43:16.547Z,22.90
2023-08-01T00:46:19.832Z,22.94
2023-08-01T00:49:22.703Z,23.01
2023-08-01T00:52:25.603Z,22.93
2023-08-01T00:55:29.795Z,22.80
2023-08-01T01:01:36.544Z,22.79
2023-08-01T01:04:39.471Z,22.76
2023-08-01T01:07:42.634Z,22.80
2023-08-01T01:10:45.463Z,22.78
2023-08-01T01:13:48.300Z,22.78
2023-08-01T01:16:52.902Z,22.70
2023-08-01T01:19:56.164Z,22.62
2023-08-01T01:23:00.607Z,22.63
2023-08-01T01:26:03.783Z,22.77
2023-08-01T01:29:09.786Z,22.74
2023-08-01T01:32:12.770Z,22.86
2023-08-01T01:35:15.726Z,23.04
2023-08-01T01:38:19.862Z,23.13
2023-08-01T01:41:23.569Z,23.16
2023-08-01T01:44:26.434Z,23.17
2023-08-01T01:47:29.300Z,23.17
2023-08-01T01:50:32.161Z,23.17
2023-08-01T01:53:36.490Z,23.20
2023-08-01T01:56:39.543Z,23.21
2023-08-01T01:59:42.607Z,23.22
2023-08-01T02:02:45.521Z,23.23
2023-08-01T02:05:48.374Z,23.25
2023-08-01T02:08:52.584Z,23.24
2023-08-01T02:11:55.427Z,23.28
2023-08-01T02:14:58.216Z,23.27
2023-08-01T02:18:01.068Z,23.29
2023-08-01T02:21:03.910Z,23.29
2023-08-01T02:24:08.131Z,23.29
2023-08-01T02:27:10.902Z,23.29
2023-08-01T02:30:13.861Z,23.29
2023-08-01T02:33:16.720Z,23.29
2023-08-01T02:36:19.757Z,23.32
2023-08-01T02:39:23.959Z,23.32
2023-08-01T02:42:26.790Z,23.34
2023-08-01T02:45:29.682Z,23.34
2023-08-01T02:48:33.483Z,23.33
2023-08-01T02:51:36.271Z,23.34
2023-08-01T02:54:40.493Z,23.36
2023-08-01T02:57:43.265Z,23.34
2023-08-01T03:00:46.109Z,23.34
2023-08-01T03:03:49.033Z,23.35
2023-08-01T03:06:51.936Z,23.34
2023-08-01T03:09:56.489Z,23.37
2023-08-01T03:12:59.975Z,23.36
2023-08-01T03:16:02.856Z,23.37
2023-08-01T03:19:06.479Z,23.37
2023-08-01T03:22:09.719Z,23.38
2023-08-01T03:25:14.009Z,23.36
2023-08-01T03:28:16.907Z,23.39
2023-08-01T03:31:19.804Z,23.39
2023-08-01T03:34:22.733Z,23.39
2023-08-01T03:37:25.615Z,23.39
2023-08-01T03:40:29.943Z,23.45
2023-08-01T03:43:32.782Z,23.46
2023-08-01T03:46:35.519Z,23.45
2023-08-01T03:49:39.827Z,23.48
2023-08-01T03:52:42.780Z,23.50
2023-08-01T03:55:48.878Z,23.50
2023-08-01T03:58:51.731Z,23.50
2023-08-01T04:01:54.537Z,23.52
2023-08-01T04:04:57.384Z,23.51
2023-08-01T04:08:00.278Z,23.51
2023-08-01T04:11:04.535Z,23.54
2023-08-01T04:14:07.373Z,23.54
2023-08-01T04:17:10.211Z,23.54
2023-08-01T04:20:13.805Z,23.53
2023-08-01T04:23:16.688Z,23.52
2023-08-01T04:26:20.847Z,23.51
2023-08-01T04:29:23.686Z,23.55
2023-08-01T04:32:26.473Z,23.56
2023-08-01T04:35:29.375Z,23.57
2023-08-01T04:38:32.183Z,23.58
2023-08-01T04:41:36.383Z,23.55
2023-08-01T04:44:39.374Z,23.58
2023-08-01T04:47:42.161Z,23.57
2023-08-01T04:50:45.020Z,23.61
2023-08-01T04:53:47.829Z,23.62
2023-08-01T04:56:52.103Z,23.66
2023-08-01T04:59:54.957Z,23.65
2023-08-01T05:02:57.938Z,23.67
2023-08-01T05:06:00.779Z,23.68
2023-08-01T05:09:04.020Z,23.71
2023-08-01T05:12:10.145Z,23.71
2023-08-01T05:15:14.040Z,23.72
2023-08-01T05:18:18.115Z,23.73
2023-08-01T05:21:20.854Z,23.75
2023-08-01T05:24:23.682Z,23.76
2023-08-01T05:27:27.808Z,23.77
2023-08-01T05:30:30.597Z,23.77
2023-08-01T05:33:33.442Z,23.80
2023-08-01T05:36:36.553Z,23.82
2023-08-01T05:39:39.379Z,23.82
2023-08-01T05:42:43.587Z,23.82
2023-08-01T05:45:46.382Z,23.87
2023-08-01T05:48:49.265Z,23.86
2023-08-01T05:51:52.108Z,23.86
2023-08-01T05:54:54.919Z,23.88
2023-08-01T05:57:59.400Z,23.87
2023-08-01T06:01:02.338Z,23.88
2023-08-01T06:04:05.508Z,23.90
2023-08-01T06:07:11.285Z,23.89
2023-08-01T06:10:14.078Z,23.89
2023-08-01T06:13:18.368Z,23.91
2023-08-01T06:16:21.288Z,23.92
2023-08-01T06:19:24.063Z,23.92
2023-08-01T06:22:26.868Z,23.91
2023-08-01T06:25:29.667Z,23.94
2023-08-01T06:28:33.934Z,23.95
2023-08-01T06:31:36.845Z,23.97
2023-08-01T06:34:39.689Z,23.98
2023-08-01T06:37:42.554Z,23.98
2023-08-01T06:40:45.457Z,23.98
2023-08-01T06:43:49.705Z,23.99
2023-08-01T06:46:52.538Z,23.99
2023-08-01T06:49:55.320Z,24.00
2023-08-01T06:52:58.316Z,23.99
2023-08-01T06:56:01.106Z,24.03
2023-08-01T06:59:05.286Z,24.00
2023-08-01T07:02:08.248Z,24.01
2023-08-01T07:05:11.160Z,24.01
2023-08-01T07:08:14.125Z,24.03
2023-08-01T07:11:16.896Z,24.04
2023-08-01T07:14:21.028Z,24.03
2023-08-01T07:17:23.833Z,24.04
2023-08-01T07:20:27.696Z,24.03
2023-08-01T07:23:30.576Z,24.03
2023-08-01T07:26:33.481Z,24.05
2023-08-01T07:29:37.673Z,24.05
2023-08-01T07:32:40.577Z,24.07
2023-08-01T07:35:43.570Z,24.08
2023-08-01T07:38:46.450Z,24.08
2023-08-01T07:41:49.242Z,24.08
2023-08-01T07:44:53.431Z,24.06
2023-08-01T07:47:56.303Z,24.09
2023-08-01T07:50:59.166Z,24.06
2023-08-01T07:54:02.191Z,24.09
2023-08-01T07:57:05.286Z,24.09
2023-08-01T08:00:11.030Z,24.10
2023-08-01T08:03:14.019Z,24.10
2023-08-01T08:06:16.914Z,24.10
2023-08-01T08:09:19.815Z,24.11
2023-08-01T08:12:22.705Z,24.13
2023-08-01T08:15:27.331Z,24.13
2023-08-01T08:18:30.275Z,24.13
2023-08-01T08:21:33.211Z,24.13
2023-08-01T08:24:37.664Z,24.15
2023-08-01T08:27:41.558Z,24.15
2023-08-01T08:30:47.857Z,24.16
2023-08-01T08:33:50.725Z,24.17
2023-08-01T08:36:54.307Z,24.17
2023-08-01T08:39:57.204Z,24.17
2023-08-01T08:43:00.973Z,24.18
2023-08-01T08:46:05.724Z,24.19
2023-08-01T08:49:09.555Z,24.20
2023-08-01T08:52:13.112Z,24.20
2023-08-01T08:55:16.026Z,24.20
2023-08-01T08:58:19.486Z,24.21
2023-08-01T09:01:23.829Z,24.22
2023-08-01T09:04:26.677Z,24.23
2023-08-01T09:07:31.710Z,24.23
2023-08-01T09:10:34.665Z,24.22
2023-08-01T09:13:37.535Z,24.23
2023-08-01T09:16:42.123Z,24.24
2023-08-01T09:19:45.189Z,24.25
2023-08-01T09:22:48.752Z,24.24
2023-08-01T09:25:52.618Z,24.24
2023-08-01T09:28:58.606Z,24.21
2023-08-01T09:32:13.311Z,24.27
2023-08-01T09:35:16.212Z,24.32
2023-08-01T09:38:19.116Z,24.32
2023-08-01T09:41:22.513Z,24.35
2023-08-01T09:44:25.361Z,24.31
2023-08-01T09:47:37.662Z,24.33
2023-08-01T09:50:40.594Z,24.34
2023-08-01T09:53:50.527Z,24.34
2023-08-01T09:56:54.643Z,24.37
2023-08-01T09:59:58.169Z,24.37
2023-08-01T10:03:02.737Z,24.39
2023-08-01T10:06:06.033Z,24.41
2023-08-01T10:09:12.361Z,24.42
2023-08-01T10:12:15.288Z,24.43
2023-08-01T10:15:18.634Z,24.45
2023-08-01T10:18:22.956Z,24.46
2023-08-01T10:21:27.627Z,24.47
2023-08-01T10:24:31.336Z,24.49
2023-08-01T10:27:36.116Z,24.50
2023-08-01T10:30:38.978Z,24.50
2023-08-01T10:33:44.129Z,24.51
2023-08-01T10:36:55.548Z,24.52
2023-08-01T10:39:59.060Z,24.59
2023-08-01T10:43:01.929Z,24.57
2023-08-01T10:46:04.968Z,24.60
2023-08-01T10:49:09.382Z,24.61
2023-08-01T10:52:18.687Z,24.60
2023-08-01T10:55:21.554Z,24.64
2023-08-01T10:58:28.734Z,24.65
2023-08-01T11:01:32.014Z,24.68
2023-08-01T11:04:36.373Z,24.69
2023-08-01T11:07:39.249Z,24.69
2023-08-01T11:10:42.149Z,24.70
2023-08-01T11:13:52.148Z,24.70
2023-08-01T11:16:56.688Z,24.70
2023-08-01T11:20:05.505Z,24.72
2023-08-01T11:23:09.255Z,24.74
2023-08-01T11:26:13.097Z,24.76
2023-08-01T11:29:16.239Z,24.79
2023-08-01T11:32:19.025Z,24.81
2023-08-01T11:35:23.298Z,24.82
2023-08-01T11:38:27.827Z,24.83
2023-08-01T11:41:31.134Z,24.84
2023-08-01T11:44:34.243Z,24.87
2023-08-01T11:47:37.297Z,24.93
2023-08-01T11:50:41.573Z,24.90
2023-08-01T11:53:44.385Z,24.83
2023-08-01T11:56:47.264Z,24.94
2023-08-01T11:59:51.264Z,24.92
2023-08-01T12:02:54.171Z,24.92
2023-08-01T12:06:05.895Z,24.91
2023-08-01T12:09:09.773Z,24.93
2023-08-01T12:12:12.655Z,24.92
2023-08-01T12:15:15.899Z,24.93
2023-08-01T12:21:32.125Z,24.95
2023-08-01T12:24:38.171Z,24.95
2023-08-01T12:27:40.952Z,24.94
2023-08-01T12:30:44.207Z,24.94
2023-08-01T12:33:47.118Z,24.96
2023-08-01T12:36:51.410Z,24.96
2023-08-01T12:39:55.500Z,24.98
2023-08-01T12:42:58.952Z,24.98
2023-08-01T12:46:02.044Z,24.99
2023-08-01T12:49:04.914Z,24.96
2023-08-01T12:52:09.300Z,24.99
2023-08-01T12:55:12.074Z,25.01
2023-08-01T12:58:15.291Z,25.04
2023-08-01T13:01:18.180Z,25.03
2023-08-01T13:04:21.053Z,25.06
2023-08-01T13:07:25.274Z,25.09
2023-08-01T13:10:28.072Z,25.10
2023-08-01T13:13:30.823Z,25.13
2023-08-01T13:16:33.673Z,25.12
2023-08-01T13:19:36.523Z,25.15
2023-08-01T13:22:40.704Z,25.17
2023-08-01T13:25:44.236Z,25.18
2023-08-01T13:28:47.062Z,25.21
2023-08-01T13:31:52.262Z,25.20
2023-08-01T13:34:55.376Z,25.24
2023-08-01T13:37:59.498Z,25.25
2023-08-01T13:41:02.597Z,25.26
2023-08-01T13:44:05.585Z,25.27
2023-08-01T13:47:08.418Z,25.29
2023-08-01T13:50:11.579Z,25.36
2023-08-01T13:53:15.844Z,25.36
2023-08-01T13:56:18.700Z,25.43
2023-08-01T13:59:21.569Z,25.37
2023-08-01T14:02:25.693Z,25.39
2023-08-01T14:05:28.777Z,25.36
2023-08-01T14:08:32.975Z,25.41
2023-08-01T14:11:35.787Z,25.39
2023-08-01T14:14:40.629Z,25.40
2023-08-01T14:17:43.559Z,25.41
2023-08-01T14:20:46.376Z,25.40
2023-08-01T14:23:50.575Z,25.39
2023-08-01T14:26:53.435Z,25.39
2023-08-01T14:29:56.333Z,25.39
2023-08-01T14:33:01.447Z,25.39
2023-08-01T14:36:04.442Z,25.37
2023-08-01T14:39:16.970Z,25.40
2023-08-01T14:42:25.041Z,25.40
2023-08-01T14:45:27.847Z,25.40
2023-08-01T14:48:30.737Z,25.39
2023-08-01T14:51:33.530Z,25.40
2023-08-01T14:54:41.287Z,25.42
2023-08-01T14:57:44.441Z,25.40
2023-08-01T15:00:47.536Z,25.42
2023-08-01T15:03:51.546Z,25.41
2023-08-01T15:06:54.535Z,25.39
2023-08-01T15:09:58.883Z,25.39
2023-08-01T15:13:01.773Z,25.37
2023-08-01T15:16:04.693Z,25.39
2023-08-01T15:19:07.515Z,25.38
2023-08-01T15:22:10.395Z,25.38
2023-08-01T15:25:14.612Z,25.40
2023-08-01T15:28:17.411Z,25.41
2023-08-01T15:31:20.260Z,25.38
2023-08-01T15:34:23.049Z,25.40
2023-08-01T15:37:25.913Z,25.40
2023-08-01T15:40:30.131Z,25.40
2023-08-01T15:43:32.949Z,25.37
2023-08-01T15:46:35.895Z,25.39
2023-08-01T15:49:40.112Z,25.40
2023-08-01T15:52:44.067Z,25.35
2023-08-01T15:55:48.296Z,25.39
2023-08-01T15:58:51.231Z,25.38
2023-08-01T16:01:54.174Z,25.37
2023-08-01T16:04:57.023Z,25.36
2023-08-01T16:08:00.105Z,25.35
2023-08-01T16:11:04.420Z,25.36
2023-08-01T16:14:07.256Z,25.35
2023-08-01T16:17:10.067Z,25.35
2023-08-01T16:20:13.378Z,25.34
2023-08-01T16:23:16.232Z,25.33
2023-08-01T16:26:20.439Z,25.33
2023-08-01T16:29:23.295Z,25.37
2023-08-01T16:32:26.134Z,25.36
2023-08-01T16:35:28.973Z,25.37
2023-08-01T16:38:31.857Z,25.37
2023-08-01T16:41:36.153Z,25.36
2023-08-01T16:44:38.958Z,25.33
2023-08-01T16:47:43.824Z,25.30
2023-08-01T16:50:47.078Z,25.34
2023-08-01T16:53:49.838Z,25.29
2023-08-01T16:56:54.033Z,25.31
2023-08-01T16:59:56.894Z,25.31
2023-08-01T17:02:59.958Z,25.30
2023-08-01T17:06:02.912Z,25.30
2023-08-01T17:09:10.118Z,25.30
2023-08-01T17:12:15.809Z,25.28
2023-08-01T17:15:19.796Z,25.24
2023-08-01T17:18:22.592Z,25.23
2023-08-01T17:21:26.429Z,25.24
2023-08-01T17:24:29.212Z,25.22
2023-08-01T17:27:33.365Z,25.20
2023-08-01T17:30:36.236Z,25.19
2023-08-01T17:33:39.119Z,25.18
2023-08-01T17:36:42.212Z,25.17
2023-08-01T17:39:45.095Z,25.17
2023-08-01T17:42:52.613Z,25.17
2023-08-01T17:45:55.491Z,25.14
2023-08-01T17:48:58.295Z,25.14
2023-08-01T17:52:01.184Z,25.11
2023-08-01T17:55:04.075Z,25.11
2023-08-01T17:58:08.213Z,25.11
2023-08-01T18:01:11.217Z,25.11
2023-08-01T18:04:14.066Z,25.09
2023-08-01T18:07:16.861Z,25.10
2023-08-01T18:10:19.791Z,25.08
2023-08-01T18:13:25.644Z,25.10
2023-08-01T18:16:28.531Z,25.08
2023-08-01T18:19:31.453Z,25.09
2023-08-01T18:22:34.254Z,25.08
2023-08-01T18:25:37.067Z,25.07
2023-08-01T18:28:41.300Z,25.06
2023-08-01T18:31:44.156Z,25.06
2023-08-01T18:34:47.138Z,25.06
2023-08-01T18:37:49.994Z,25.06
2023-08-01T18:40:52.786Z,25.04
2023-08-01T18:43:57.008Z,25.06
2023-08-01T18:46:59.858Z,25.06
2023-08-01T18:50:02.756Z,25.04
2023-08-01T18:53:05.664Z,25.04
2023-08-01T18:56:12.416Z,25.04
2023-08-01T18:59:17.504Z,25.02
2023-08-01T19:02:20.348Z,25.04
2023-08-01T19:05:23.633Z,25.01
2023-08-01T19:08:26.474Z,25.01
2023-08-01T19:11:31.485Z,25.02
2023-08-01T19:14:35.701Z,24.98
2023-08-01T19:17:38.655Z,24.98
2023-08-01T19:20:41.437Z,24.95
2023-08-01T19:23:44.240Z,24.94
2023-08-01T19:26:46.991Z,24.99
2023-08-01T19:29:51.812Z,24.96
2023-08-01T19:32:54.676Z,24.97
2023-08-01T19:35:57.515Z,24.93
2023-08-01T19:39:00.328Z,24.95
2023-08-01T19:42:03.179Z,24.96
2023-08-01T19:45:08.838Z,24.94
2023-08-01T19:48:12.435Z,24.94
2023-08-01T19:51:16.050Z,24.91
2023-08-01T19:54:18.906Z,24.90
2023-08-01T19:57:21.765Z,24.87
2023-08-01T20:00:27.015Z,24.90
2023-08-01T20:03:30.611Z,24.97
2023-08-01T20:06:33.751Z,25.00
2023-08-01T20:09:36.703Z,24.98
2023-08-01T20:12:39.559Z,24.93
2023-08-01T20:15:43.802Z,24.93
2023-08-01T20:18:46.680Z,24.93
2023-08-01T20:21:49.513Z,24.84
2023-08-01T20:24:52.353Z,24.61
2023-08-01T20:27:56.180Z,24.37
2023-08-01T20:31:03.746Z,24.33
2023-08-01T20:34:08.672Z,24.30
2023-08-01T20:37:11.605Z,24.21
2023-08-01T20:40:14.551Z,24.06
2023-08-01T20:43:17.399Z,24.21
2023-08-01T20:46:21.821Z,24.37
2023-08-01T20:49:24.685Z,24.15
2023-08-01T20:52:27.491Z,24.07
2023-08-01T20:55:30.290Z,24.20
2023-08-01T20:58:34.255Z,24.14
2023-08-01T21:01:38.534Z,24.19
2023-08-01T21:04:41.419Z,24.28
2023-08-01T21:07:44.346Z,24.12
2023-08-01T21:10:47.182Z,23.98
2023-08-01T21:13:50.076Z,23.96
2023-08-01T21:16:54.244Z,23.94
2023-08-01T21:19:57.261Z,24.04
2023-08-01T21:23:00.094Z,24.05
2023-08-01T21:26:02.948Z,24.08
2023-08-01T21:29:05.871Z,24.08
2023-08-01T21:32:10.479Z,23.95
2023-08-01T21:35:13.371Z,23.97
2023-08-01T21:38:16.150Z,24.01
2023-08-01T21:41:19.197Z,23.91
2023-08-01T21:44:22.020Z,23.94
2023-08-01T21:47:26.324Z,23.94
2023-08-01T21:50:29.333Z,23.95
2023-08-01T21:53:32.275Z,23.78
2023-08-01T21:56:35.143Z,24.01
2023-08-01T21:59:38.019Z,23.89
2023-08-01T22:02:42.812Z,23.97
2023-08-01T22:05:45.744Z,23.94
2023-08-01T22:08:48.509Z,23.77
2023-08-01T22:11:51.343Z,23.72
2023-08-01T22:14:54.689Z,23.61
2023-08-01T22:17:58.930Z,23.78
2023-08-01T22:21:01.733Z,23.80
2023-08-01T22:24:04.562Z,23.84
2023-08-01T22:27:08.033Z,23.86
2023-08-01T22:30:11.917Z,23.87
2023-08-01T22:33:16.273Z,23.97
2023-08-01T22:36:19.122Z,23.95
2023-08-01T22:39:21.934Z,23.92
2023-08-01T22:42:24.720Z,23.91
2023-08-01T22:45:27.589Z,23.95
2023-08-01T22:48:31.816Z,23.92
2023-08-01T22:51:34.728Z,23.85
2023-08-01T22:54:37.675Z,23.90
2023-08-01T22:57:40.484Z,23.86
2023-08-01T23:00:43.669Z,23.90
2023-08-01T23:03:48.126Z,23.88
2023-08-01T23:06:50.993Z,23.93
2023-08-01T23:09:55.162Z,23.81
2023-08-01T23:12:58.032Z,23.78
2023-08-01T23:16:00.928Z,23.82
2023-08-01T23:19:05.136Z,23.86
2023-08-01T23:22:08.881Z,23.73
2023-08-01T23:25:11.780Z,23.33
2023-08-01T23:28:14.618Z,23.36
2023-08-01T23:31:17.546Z,23.51
2023-08-01T23:34:21.761Z,23.33
2023-08-01T23:37:24.610Z,23.22
2023-08-01T23:40:29.263Z,22.95
2023-08-01T23:43:32.128Z,22.82
2023-08-01T23:46:35.095Z,22.69
2023-08-01T23:49:39.283Z,22.32
2023-08-01T23:52:44.285Z,22.41
2023-08-01T23:55:48.419Z,22.55
2023-08-01T23:58:51.647Z,22.62
